createdAt,value
2022-07-26T00:00:26.646Z,24.88
2022-07-26T00:02:53.385Z,21.92
2022-07-26T00:05:20.178Z,17.95
2022-07-26T00:07:46.966Z,18.20
2022-07-26T00:10:14.728Z,14.25
2022-07-26T00:12:41.566Z,17.17
2022-07-26T00:15:10.353Z,16.20
2022-07-26T00:17:37.008Z,17.23
2022-07-26T00:20:04.738Z,21.10
2022-07-26T00:22:34.493Z,16.48
2022-07-26T00:25:04.133Z,17.15
2022-07-26T00:27:31.020Z,19.05
2022-07-26T00:29:57.687Z,18.25
2022-07-26T00:32:24.504Z,17.52
2022-07-26T00:34:52.204Z,21.23
2022-07-26T00:37:20.660Z,16.77
2022-07-26T00:39:47.838Z,15.93
2022-07-26T00:42:14.590Z,13.05
2022-07-26T00:44:42.985Z,17.02
2022-07-26T00:47:10.189Z,21.13
2022-07-26T00:49:37.165Z,14.25
2022-07-26T00:52:05.866Z,13.18
2022-07-26T00:54:32.587Z,12.82
2022-07-26T00:57:00.513Z,18.33
2022-07-26T00:59:27.253Z,17.77
2022-07-26T01:01:54.545Z,19.08
2022-07-26T01:04:21.488Z,12.55
2022-07-26T01:06:48.998Z,15.85
2022-07-26T01:09:17.183Z,20.70
2022-07-26T01:11:43.872Z,16.80
2022-07-26T01:14:10.933Z,12.63
2022-07-26T01:16:38.115Z,14.95
2022-07-26T01:19:04.845Z,15.32
2022-07-26T01:21:33.036Z,20.15
2022-07-26T01:23:59.770Z,18.88
2022-07-26T01:26:26.435Z,19.92
2022-07-26T01:28:53.167Z,11.50
2022-07-26T01:31:20.107Z,13.13
2022-07-26T01:33:46.881Z,17.63
2022-07-26T01:36:13.598Z,12.98
2022-07-26T01:38:41.261Z,16.17
2022-07-26T01:41:08.215Z,17.65
2022-07-26T01:43:35.317Z,19.85
2022-07-26T01:46:02.813Z,15.57
2022-07-26T01:48:30.384Z,15.73
2022-07-26T01:50:57.860Z,14.45
2022-07-26T01:53:24.651Z,19.38
2022-07-26T01:55:51.379Z,12.35
2022-07-26T01:58:18.304Z,18.55
2022-07-26T02:00:45.068Z,15.00
2022-07-26T02:03:11.847Z,13.35
2022-07-26T02:05:38.557Z,13.25
2022-07-26T02:08:05.370Z,13.10
2022-07-26T02:10:50.773Z,12.77
2022-07-26T02:13:17.971Z,18.42
2022-07-26T02:15:44.771Z,17.13
2022-07-26T02:18:11.500Z,14.15
2022-07-26T02:20:38.179Z,14.77
2022-07-26T02:23:04.925Z,18.70
2022-07-26T02:25:32.029Z,14.27
2022-07-26T02:27:58.869Z,13.82
2022-07-26T02:30:25.756Z,14.70
2022-07-26T02:32:52.394Z,16.48
2022-07-26T02:35:19.244Z,16.98
2022-07-26T02:37:45.881Z,12.20
2022-07-26T02:40:17.032Z,15.10
2022-07-26T02:42:45.801Z,19.17
2022-07-26T02:45:12.453Z,16.65
2022-07-26T02:47:50.104Z,18.30
2022-07-26T02:50:18.616Z,17.90
2022-07-26T02:52:48.103Z,18.63
2022-07-26T02:55:16.125Z,18.65
2022-07-26T02:57:46.709Z,20.35
2022-07-26T03:00:16.181Z,22.50
2022-07-26T03:02:43.188Z,17.00
2022-07-26T03:05:10.483Z,18.00
2022-07-26T03:07:37.422Z,13.93
2022-07-26T03:10:04.845Z,15.30
2022-07-26T03:12:31.619Z,15.32
2022-07-26T03:14:58.359Z,15.68
2022-07-26T03:17:25.385Z,20.02
2022-07-26T03:19:52.107Z,19.30
2022-07-26T03:22:18.912Z,15.60
2022-07-26T03:24:45.533Z,19.25
2022-07-26T03:27:12.403Z,26.95
2022-07-26T03:29:39.046Z,16.27
2022-07-26T03:32:06.080Z,16.45
2022-07-26T03:34:33.078Z,24.38
2022-07-26T03:36:59.723Z,16.73
2022-07-26T03:39:26.370Z,18.70
2022-07-26T03:41:53.036Z,18.52
2022-07-26T03:44:19.700Z,16.77
2022-07-26T03:46:46.467Z,18.95
2022-07-26T03:49:16.620Z,19.05
2022-07-26T03:51:43.752Z,17.30
2022-07-26T03:54:10.841Z,23.88
2022-07-26T03:56:37.768Z,18.45
2022-07-26T03:59:06.960Z,19.67
2022-07-26T04:01:35.054Z,14.48
2022-07-26T04:04:02.616Z,17.10
2022-07-26T04:06:29.259Z,16.95
2022-07-26T04:08:56.864Z,16.58
2022-07-26T04:11:27.785Z,14.48
2022-07-26T04:13:56.174Z,21.65
2022-07-26T04:16:23.227Z,15.93
2022-07-26T04:18:50.058Z,17.73
2022-07-26T04:21:17.079Z,17.70
2022-07-26T04:23:46.533Z,23.40
2022-07-26T04:26:17.493Z,18.00
2022-07-26T04:28:44.154Z,17.77
2022-07-26T04:31:10.879Z,21.25
2022-07-26T04:33:37.653Z,10.55
2022-07-26T04:36:04.616Z,14.70
2022-07-26T04:38:31.671Z,18.85
2022-07-26T04:40:58.466Z,13.02
2022-07-26T04:43:25.627Z,11.48
2022-07-26T04:45:52.677Z,12.70
2022-07-26T04:48:19.456Z,12.50
2022-07-26T04:50:46.313Z,19.05
2022-07-26T04:53:13.600Z,18.25
2022-07-26T04:55:41.271Z,14.52
2022-07-26T04:58:08.757Z,16.70
2022-07-26T05:00:51.354Z,13.98
2022-07-26T05:03:25.041Z,17.42
2022-07-26T05:05:52.092Z,11.30
2022-07-26T05:08:18.714Z,11.68
2022-07-26T05:10:45.577Z,12.07
2022-07-26T05:13:12.246Z,13.13
2022-07-26T05:15:38.984Z,13.13
2022-07-26T05:18:10.573Z,15.75
2022-07-26T05:20:40.157Z,12.73
2022-07-26T05:23:06.826Z,19.73
2022-07-26T05:25:33.768Z,13.55
2022-07-26T05:28:01.671Z,12.25
2022-07-26T05:30:28.567Z,11.95
2022-07-26T05:32:55.535Z,11.90
2022-07-26T05:35:22.312Z,17.65
2022-07-26T05:37:49.066Z,12.23
2022-07-26T05:40:15.813Z,11.77
2022-07-26T05:42:42.716Z,10.32
2022-07-26T05:45:09.971Z,8.18
2022-07-26T05:47:36.782Z,15.27
2022-07-26T05:50:05.083Z,9.43
2022-07-26T05:52:32.032Z,15.10
2022-07-26T05:54:59.214Z,9.23
2022-07-26T05:57:26.033Z,9.82
2022-07-26T05:59:52.811Z,16.67
2022-07-26T06:02:19.713Z,13.68
2022-07-26T06:04:47.545Z,16.55
2022-07-26T06:07:15.117Z,14.75
2022-07-26T06:09:42.214Z,8.50
2022-07-26T06:12:09.097Z,10.90
2022-07-26T06:14:35.928Z,7.35
2022-07-26T06:17:04.554Z,16.33
2022-07-26T06:19:31.887Z,9.10
2022-07-26T06:21:59.110Z,8.13
2022-07-26T06:24:26.031Z,14.52
2022-07-26T06:26:57.116Z,17.73
2022-07-26T06:29:32.536Z,13.63
2022-07-26T06:31:59.691Z,20.75
2022-07-26T06:34:26.675Z,10.73
2022-07-26T06:36:53.403Z,10.20
2022-07-26T06:39:20.183Z,21.77
2022-07-26T06:41:46.917Z,12.15
2022-07-26T06:44:13.735Z,13.77
2022-07-26T06:46:40.461Z,9.25
2022-07-26T06:49:07.313Z,17.60
2022-07-26T06:51:34.357Z,12.18
2022-07-26T06:54:01.403Z,19.17
2022-07-26T06:56:28.094Z,13.95
2022-07-26T06:58:56.510Z,15.10
2022-07-26T07:01:58.150Z,7.28
2022-07-26T07:04:10.828Z,12.05
2022-07-26T07:06:38.004Z,16.23
2022-07-26T07:09:05.011Z,9.48
2022-07-26T07:11:35.195Z,13.05
2022-07-26T07:14:03.414Z,10.52
2022-07-26T07:16:30.414Z,16.42
2022-07-26T07:18:57.375Z,8.30
2022-07-26T07:21:24.087Z,9.07
2022-07-26T07:23:50.782Z,8.88
2022-07-26T07:26:17.668Z,15.20
2022-07-26T07:28:44.370Z,19.85
2022-07-26T07:31:11.887Z,14.73
2022-07-26T07:33:50.387Z,13.25
2022-07-26T07:36:20.331Z,11.63
2022-07-26T07:38:47.264Z,13.40
2022-07-26T07:41:14.203Z,9.90
2022-07-26T07:43:41.010Z,14.05
2022-07-26T07:46:07.743Z,14.35
2022-07-26T07:48:34.544Z,12.35
2022-07-26T07:51:01.304Z,15.18
2022-07-26T07:53:28.377Z,8.75
2022-07-26T07:55:57.832Z,11.93
2022-07-26T07:58:24.634Z,23.05
2022-07-26T08:00:54.891Z,17.95
2022-07-26T08:03:21.838Z,8.95
2022-07-26T08:05:49.780Z,13.13
2022-07-26T08:08:18.227Z,11.07
2022-07-26T08:10:51.784Z,12.65
2022-07-26T08:13:21.196Z,9.07
2022-07-26T08:15:52.945Z,8.90
2022-07-26T08:18:22.227Z,11.25
2022-07-26T08:20:50.826Z,6.55
2022-07-26T08:23:17.646Z,11.60
2022-07-26T08:25:55.579Z,18.27
2022-07-26T08:28:45.586Z,11.80
2022-07-26T08:31:11.896Z,8.43
2022-07-26T08:33:39.346Z,10.77
2022-07-26T08:36:12.792Z,6.82
2022-07-26T08:38:39.637Z,14.38
2022-07-26T08:41:06.598Z,15.85
2022-07-26T08:43:45.255Z,14.65
2022-07-26T08:46:24.719Z,10.80
2022-07-26T08:48:52.533Z,8.10
2022-07-26T08:51:22.776Z,10.35
2022-07-26T08:53:51.970Z,9.77
2022-07-26T08:56:18.733Z,11.77
2022-07-26T08:58:45.747Z,9.50
2022-07-26T09:01:13.497Z,11.18
2022-07-26T09:03:44.600Z,12.30
2022-07-26T09:06:17.687Z,4.45
2022-07-26T09:08:50.176Z,6.18
2022-07-26T09:11:32.074Z,4.18
2022-07-26T09:14:04.588Z,5.60
2022-07-26T09:16:36.023Z,4.93
2022-07-26T09:19:21.494Z,9.05
2022-07-26T09:21:48.449Z,6.20
2022-07-26T09:24:48.003Z,7.20
2022-07-26T09:27:16.842Z,7.15
2022-07-26T09:29:55.072Z,6.93
2022-07-26T09:32:24.901Z,7.95
2022-07-26T09:34:58.796Z,9.13
2022-07-26T09:37:36.030Z,4.45
2022-07-26T09:40:06.883Z,5.50
2022-07-26T09:42:33.655Z,4.18
2022-07-26T09:45:00.538Z,12.52
2022-07-26T09:47:38.276Z,2.97
2022-07-26T09:50:16.564Z,7.43
2022-07-26T09:53:04.755Z,8.48
2022-07-26T09:55:41.020Z,7.57
2022-07-26T09:58:16.229Z,4.05
2022-07-26T10:00:45.413Z,3.40
2022-07-26T10:03:12.757Z,4.93
2022-07-26T10:05:40.292Z,5.40
2022-07-26T10:08:08.083Z,12.80
2022-07-26T10:10:49.343Z,6.03
2022-07-26T10:13:16.614Z,7.75
2022-07-26T10:15:49.543Z,7.50
2022-07-26T10:18:34.796Z,6.18
2022-07-26T10:21:25.466Z,8.00
2022-07-26T10:23:53.373Z,6.80
2022-07-26T10:26:32.340Z,8.15
2022-07-26T10:29:17.358Z,7.22
2022-07-26T10:31:45.150Z,10.00
2022-07-26T10:34:31.679Z,9.38
2022-07-26T10:37:07.765Z,7.68
2022-07-26T10:39:35.109Z,6.47
2022-07-26T10:42:10.045Z,9.57
2022-07-26T10:44:41.415Z,9.93
2022-07-26T10:49:58.376Z,11.45
2022-07-26T10:52:31.999Z,9.50
2022-07-26T10:55:01.661Z,7.57
2022-07-26T10:57:30.689Z,7.00
2022-07-26T10:59:59.273Z,8.15
2022-07-26T11:02:35.975Z,8.98
2022-07-26T11:05:16.509Z,9.65
2022-07-26T11:08:08.272Z,13.35
2022-07-26T11:10:41.364Z,3.30
2022-07-26T11:13:11.373Z,13.13
2022-07-26T11:15:40.724Z,9.60
2022-07-26T11:18:10.185Z,4.18
2022-07-26T11:20:37.259Z,7.50
2022-07-26T11:23:04.443Z,5.35
2022-07-26T11:25:31.260Z,7.18
2022-07-26T11:28:07.370Z,7.40
2022-07-26T11:30:35.084Z,7.75
2022-07-26T11:33:01.963Z,6.63
2022-07-26T11:35:29.842Z,12.80
2022-07-26T11:38:07.825Z,8.52
2022-07-26T11:40:46.552Z,8.25
2022-07-26T11:43:13.741Z,13.02
2022-07-26T11:45:40.754Z,8.98
2022-07-26T11:48:07.627Z,11.73
2022-07-26T11:50:34.461Z,6.43
2022-07-26T11:53:01.272Z,5.47
2022-07-26T11:55:31.385Z,8.55
2022-07-26T11:58:06.231Z,9.13
2022-07-26T12:00:33.122Z,12.95
2022-07-26T12:02:59.870Z,6.78
2022-07-26T12:05:27.498Z,4.43
2022-07-26T12:08:00.959Z,10.38
2022-07-26T12:10:28.446Z,8.25
2022-07-26T12:13:09.905Z,11.40
2022-07-26T12:15:50.026Z,8.00
2022-07-26T12:18:31.196Z,5.22
2022-07-26T12:21:04.970Z,4.38
2022-07-26T12:23:48.383Z,4.30
2022-07-26T12:26:29.208Z,8.05
2022-07-26T12:28:56.826Z,7.45
2022-07-26T12:31:32.327Z,4.50
2022-07-26T12:33:59.589Z,33.95
2022-07-26T12:36:29.496Z,3.70
2022-07-26T12:39:01.070Z,2.72
2022-07-26T12:41:36.324Z,1.63
2022-07-26T12:44:05.018Z,5.18
2022-07-26T12:46:33.898Z,4.35
2022-07-26T12:49:01.180Z,4.38
2022-07-26T12:51:28.123Z,2.92
2022-07-26T12:53:55.058Z,2.65
2022-07-26T12:56:21.772Z,4.22
2022-07-26T12:58:48.455Z,2.60
2022-07-26T13:01:15.301Z,5.15
2022-07-26T13:03:42.149Z,7.50
2022-07-26T13:06:08.919Z,9.15
2022-07-26T13:08:35.653Z,2.05
2022-07-26T13:11:02.371Z,3.63
2022-07-26T13:13:29.061Z,3.65
2022-07-26T13:15:55.726Z,3.28
2022-07-26T13:18:22.397Z,1.83
2022-07-26T13:20:49.063Z,3.97
2022-07-26T13:23:21.810Z,0.90
2022-07-26T13:25:49.858Z,2.53
2022-07-26T13:28:17.416Z,2.97
2022-07-26T13:30:45.101Z,3.28
2022-07-26T13:33:12.530Z,2.10
2022-07-26T13:35:41.358Z,1.05
2022-07-26T13:38:08.667Z,1.95
2022-07-26T13:40:36.108Z,0.93
2022-07-26T13:43:03.624Z,2.00
2022-07-26T13:45:30.288Z,2.15
2022-07-26T13:47:59.541Z,1.73
2022-07-26T13:50:28.144Z,1.98
2022-07-26T13:52:56.417Z,3.60
2022-07-26T13:55:24.022Z,2.88
2022-07-26T13:57:57.297Z,2.88
2022-07-26T14:00:26.993Z,4.30
2022-07-26T14:02:54.798Z,2.05
2022-07-26T14:05:21.748Z,1.92
2022-07-26T14:07:48.435Z,3.03
2022-07-26T14:10:15.243Z,1.38
2022-07-26T14:12:42.147Z,3.80
2022-07-26T14:15:15.486Z,1.45
2022-07-26T14:17:47.371Z,2.80
2022-07-26T14:20:16.974Z,1.55
2022-07-26T14:22:44.464Z,2.72
2022-07-26T14:25:11.173Z,3.35
2022-07-26T14:27:38.055Z,1.88
2022-07-26T14:30:06.807Z,4.65
2022-07-26T14:32:34.208Z,4.07
2022-07-26T14:35:00.897Z,2.58
2022-07-26T14:37:44.014Z,3.92
2022-07-26T14:40:14.217Z,4.78
2022-07-26T14:42:41.126Z,3.75
2022-07-26T14:45:09.753Z,7.93
2022-07-26T14:47:37.006Z,1.55
2022-07-26T14:50:07.091Z,3.80
2022-07-26T14:52:37.578Z,2.80
2022-07-26T14:55:05.201Z,1.88
2022-07-26T14:57:31.969Z,2.90
2022-07-26T14:59:59.345Z,1.23
2022-07-26T15:02:26.327Z,5.03
2022-07-26T15:04:53.181Z,2.38
2022-07-26T15:07:19.966Z,6.00
2022-07-26T15:09:46.642Z,1.70
2022-07-26T15:12:13.396Z,3.10
2022-07-26T15:14:41.207Z,1.35
2022-07-26T15:17:07.892Z,1.65
2022-07-26T15:19:35.261Z,0.95
2022-07-26T15:22:02.183Z,1.35
2022-07-26T15:24:29.125Z,1.33
2022-07-26T15:26:56.205Z,1.65
2022-07-26T15:29:22.982Z,2.28
2022-07-26T15:31:50.554Z,2.97
2022-07-26T15:34:17.527Z,3.95
2022-07-26T15:36:44.315Z,4.22
2022-07-26T15:39:18.590Z,2.85
2022-07-26T15:41:47.341Z,2.70
2022-07-26T15:44:16.828Z,1.90
2022-07-26T15:46:45.852Z,1.70
2022-07-26T15:49:16.047Z,3.28
2022-07-26T15:51:43.448Z,2.35
2022-07-26T15:54:12.636Z,6.97
2022-07-26T15:56:39.822Z,1.55
2022-07-26T15:59:09.554Z,3.92
2022-07-26T16:01:36.747Z,5.00
2022-07-26T16:04:05.415Z,1.10
2022-07-26T16:06:33.492Z,4.78
2022-07-26T16:09:16.734Z,3.92
2022-07-26T16:11:44.961Z,1.65
2022-07-26T16:14:11.696Z,2.10
2022-07-26T16:16:38.449Z,3.40
2022-07-26T16:19:05.179Z,4.75
2022-07-26T16:21:32.265Z,3.97
2022-07-26T16:24:02.969Z,6.22
2022-07-26T16:26:32.914Z,2.05
2022-07-26T16:29:00.590Z,2.90
2022-07-26T16:31:27.390Z,4.13
2022-07-26T16:33:54.146Z,1.92
2022-07-26T16:36:20.808Z,3.28
2022-07-26T16:38:47.470Z,0.98
2022-07-26T16:41:14.169Z,2.13
2022-07-26T16:43:40.880Z,1.95
2022-07-26T16:46:07.605Z,4.90
2022-07-26T16:48:34.359Z,1.88
2022-07-26T16:51:01.106Z,4.18
2022-07-26T16:53:28.158Z,2.53
2022-07-26T16:55:54.839Z,1.73
2022-07-26T16:58:22.799Z,2.22
2022-07-26T17:00:50.180Z,3.05
2022-07-26T17:03:17.491Z,1.83
2022-07-26T17:05:45.931Z,3.05
2022-07-26T17:08:12.586Z,1.63
2022-07-26T17:10:39.291Z,2.83
2022-07-26T17:13:06.095Z,3.92
2022-07-26T17:15:33.073Z,2.22
2022-07-26T17:17:59.827Z,1.05
2022-07-26T17:20:26.609Z,3.15
2022-07-26T17:22:53.697Z,4.32
2022-07-26T17:25:20.594Z,2.08
2022-07-26T17:27:47.596Z,1.25
2022-07-26T17:30:14.634Z,0.93
2022-07-26T17:32:41.983Z,1.60
2022-07-26T17:35:08.741Z,1.42
2022-07-26T17:37:35.400Z,2.83
2022-07-26T17:40:05.055Z,3.42
2022-07-26T17:42:34.932Z,0.95
2022-07-26T17:45:01.680Z,2.60
2022-07-26T17:47:30.576Z,4.80
2022-07-26T17:50:37.685Z,1.23
2022-07-26T17:52:50.148Z,6.38
2022-07-26T17:55:18.557Z,1.95
2022-07-26T17:57:46.023Z,1.42
2022-07-26T18:00:13.371Z,2.25
2022-07-26T18:02:39.974Z,1.80
2022-07-26T18:05:06.946Z,4.57
2022-07-26T18:07:33.733Z,2.65
2022-07-26T18:10:00.431Z,6.47
2022-07-26T18:12:27.086Z,1.98
2022-07-26T18:14:53.790Z,1.08
2022-07-26T18:17:20.452Z,1.52
2022-07-26T18:19:47.123Z,4.53
2022-07-26T18:22:13.775Z,4.57
2022-07-26T18:24:40.809Z,1.40
2022-07-26T18:27:07.576Z,1.85
2022-07-26T18:29:34.301Z,3.85
2022-07-26T18:32:02.171Z,6.07
2022-07-26T18:34:29.065Z,3.55
2022-07-26T18:36:55.797Z,4.32
2022-07-26T18:39:22.507Z,1.63
2022-07-26T18:41:49.124Z,5.50
2022-07-26T18:44:15.868Z,2.28
2022-07-26T18:46:42.640Z,2.50
2022-07-26T18:49:09.764Z,8.93
2022-07-26T18:51:42.917Z,4.40
2022-07-26T18:54:10.001Z,2.47
2022-07-26T18:56:36.705Z,2.70
2022-07-26T18:59:03.860Z,3.65
2022-07-26T19:01:30.640Z,5.53
2022-07-26T19:03:57.498Z,3.28
2022-07-26T19:06:24.747Z,5.80
2022-07-26T19:08:51.570Z,3.53
2022-07-26T19:11:18.255Z,1.40
2022-07-26T19:13:44.866Z,5.35
2022-07-26T19:16:11.684Z,3.15
2022-07-26T19:18:38.521Z,3.80
2022-07-26T19:21:05.214Z,3.63
2022-07-26T19:23:32.009Z,4.00
2022-07-26T19:25:58.812Z,6.20
2022-07-26T19:28:25.620Z,2.22
2022-07-26T19:30:52.319Z,7.85
2022-07-26T19:33:18.966Z,3.90
2022-07-26T19:35:45.613Z,5.07
2022-07-26T19:38:12.361Z,2.83
2022-07-26T19:40:39.081Z,3.90
2022-07-26T19:43:05.792Z,1.95
2022-07-26T19:45:32.441Z,3.25
2022-07-26T19:47:59.482Z,2.53
2022-07-26T19:50:26.184Z,3.70
2022-07-26T19:52:52.906Z,5.22
2022-07-26T19:55:19.701Z,7.38
2022-07-26T19:57:46.486Z,2.95
2022-07-26T20:00:13.729Z,3.80
2022-07-26T20:02:41.362Z,4.75
2022-07-26T20:05:11.651Z,4.90
2022-07-26T20:07:38.613Z,3.85
2022-07-26T20:10:06.506Z,6.20
2022-07-26T20:12:37.377Z,3.58
2022-07-26T20:15:04.712Z,5.82
2022-07-26T20:17:35.493Z,3.40
2022-07-26T20:20:05.465Z,5.03
2022-07-26T20:22:32.188Z,3.45
2022-07-26T20:24:58.853Z,3.13
2022-07-26T20:27:25.641Z,3.45
2022-07-26T20:29:55.111Z,3.30
2022-07-26T20:32:24.249Z,7.93
2022-07-26T20:34:50.870Z,5.68
2022-07-26T20:37:17.568Z,8.13
2022-07-26T20:39:44.353Z,9.05
2022-07-26T20:42:13.078Z,7.93
2022-07-26T20:44:48.345Z,6.78
2022-07-26T20:47:15.491Z,9.75
2022-07-26T20:49:42.137Z,6.32
2022-07-26T20:52:08.818Z,5.47
2022-07-26T20:54:35.577Z,6.05
2022-07-26T20:57:04.155Z,7.68
2022-07-26T20:59:32.453Z,9.55
2022-07-26T21:01:59.352Z,10.90
2022-07-26T21:04:26.285Z,5.65
2022-07-26T21:06:53.086Z,9.13
2022-07-26T21:09:19.935Z,6.40
2022-07-26T21:11:46.832Z,11.90
2022-07-26T21:14:13.499Z,8.43
2022-07-26T21:16:40.235Z,8.52
2022-07-26T21:19:07.098Z,9.43
2022-07-26T21:21:34.756Z,9.60
2022-07-26T21:24:01.417Z,7.25
2022-07-26T21:26:28.091Z,14.85
2022-07-26T21:28:54.917Z,11.48
2022-07-26T21:31:21.761Z,10.23
2022-07-26T21:33:48.447Z,8.60
2022-07-26T21:36:17.612Z,8.43
2022-07-26T21:38:44.473Z,10.32
2022-07-26T21:41:13.307Z,14.65
2022-07-26T21:43:40.552Z,9.73
2022-07-26T21:46:12.214Z,4.15
2022-07-26T21:48:40.103Z,9.63
2022-07-26T21:51:06.869Z,8.73
2022-07-26T21:53:33.513Z,5.10
2022-07-26T21:56:00.168Z,13.23
2022-07-26T21:58:28.120Z,8.40
2022-07-26T22:01:03.493Z,8.50
2022-07-26T22:03:36.525Z,11.38
2022-07-26T22:06:06.304Z,10.95
2022-07-26T22:08:33.525Z,8.05
2022-07-26T22:11:00.726Z,7.28
2022-07-26T22:13:27.596Z,7.80
2022-07-26T22:15:54.280Z,10.95
2022-07-26T22:18:21.134Z,9.40
2022-07-26T22:20:49.217Z,9.02
2022-07-26T22:23:17.880Z,12.07
2022-07-26T22:25:44.921Z,8.30
2022-07-26T22:28:18.221Z,6.55
2022-07-26T22:30:45.567Z,16.70
2022-07-26T22:33:12.211Z,9.80
2022-07-26T22:35:38.936Z,8.60
2022-07-26T22:38:09.043Z,8.98
2022-07-26T22:40:37.305Z,7.05
2022-07-26T22:43:05.055Z,7.97
2022-07-26T22:45:32.029Z,5.80
2022-07-26T22:47:59.129Z,7.38
2022-07-26T22:50:25.780Z,8.75
2022-07-26T22:52:52.746Z,3.22
2022-07-26T22:55:19.801Z,10.93
2022-07-26T22:57:46.851Z,7.07
2022-07-26T23:00:16.692Z,7.63
2022-07-26T23:02:44.083Z,5.32
2022-07-26T23:05:11.675Z,10.45
2022-07-26T23:07:39.368Z,8.80
2022-07-26T23:10:09.242Z,10.75
2022-07-26T23:12:36.605Z,15.02
2022-07-26T23:15:05.596Z,7.90
2022-07-26T23:17:32.500Z,12.32
2022-07-26T23:19:59.274Z,6.40
2022-07-26T23:22:25.944Z,14.07
2022-07-26T23:24:52.666Z,6.97
2022-07-26T23:27:20.313Z,6.90
2022-07-26T23:29:49.023Z,7.40
2022-07-26T23:32:15.892Z,7.25
2022-07-26T23:34:43.035Z,8.20
2022-07-26T23:37:09.952Z,13.93
2022-07-26T23:39:37.054Z,8.13
2022-07-26T23:42:03.897Z,7.07
2022-07-26T23:44:31.361Z,7.65
2022-07-26T23:46:58.933Z,10.73
2022-07-26T23:49:26.118Z,12.00
2022-07-26T23:51:53.219Z,6.97
2022-07-26T23:54:20.074Z,13.02
2022-07-26T23:56:47.541Z,3.95
2022-07-26T23:59:15.123Z,7.35
